sensor_id;sensor_type;location;lat;lon;timestamp;temperature;humidity
6863;DHT22;3470;48.738;9.616;2024-03-29T00:01:03;5.80;94.50
6863;DHT22;3470;48.738;9.616;2024-03-29T00:03:29;5.90;94.50
6863;DHT22;3470;48.738;9.616;2024-03-29T00:05:54;5.90;94.50
6863;DHT22;3470;48.738;9.616;2024-03-29T00:08:20;6.00;94.40
6863;DHT22;3470;48.738;9.616;2024-03-29T00:10:48;6.10;94.50
6863;DHT22;3470;48.738;9.616;2024-03-29T00:13:14;6.30;94.40
6863;DHT22;3470;48.738;9.616;2024-03-29T00:15:39;6.20;94.40
6863;DHT22;3470;48.738;9.616;2024-03-29T19:02:38;12.00;99.90
6863;DHT22;3470;48.738;9.616;2024-03-29T19:05:04;11.70;99.90
6863;DHT22;3470;48.738;9.616;2024-03-29T19:07:30;11.70;99.90
6863;DHT22;3470;48.738;9.616;2024-03-29T19:09:55;11.70;99.90
6863;DHT22;3470;48.738;9.616;2024-03-29T19:12:21;11.60;99.90
6863;DHT22;3470;48.738;9.616;2024-03-29T19:14:48;11.60;99.90
6863;DHT22;3470;48.738;9.616;2024-03-29T19:17:14;11.60;99.90
6863;DHT22;3470;48.738;9.616;2024-03-29T19:19:39;11.60;99.90
6863;DHT22;3470;48.738;9.616;2024-03-29T19:22:05;11.60;99.90
6863;DHT22;3470;48.738;9.616;2024-03-29T19:24:31;11.60;99.90
6863;DHT22;3470;48.738;9.616;2024-03-29T19:26:57;11.60;99.90
6863;DHT22;3470;48.738;9.616;2024-03-29T19:29:23;11.60;99.90
6863;DHT22;3470;48.738;9.616;2024-03-29T19:31:48;11.50;99.90
6863;DHT22;3470;48.738;9.616;2024-03-29T19:34:14;11.50;99.90
6863;DHT22;3470;48.738;9.616;2024-03-29T19:36:40;11.50;99.90
6863;DHT22;3470;48.738;9.616;2024-03-29T19:39:06;11.60;99.90
6863;DHT22;3470;48.738;9.616;2024-03-29T19:41:36;11.50;99.90
6863;DHT22;3470;48.738;9.616;2024-03-29T19:44:02;11.40;99.90
6863;DHT22;3470;48.738;9.616;2024-03-29T19:46:31;11.40;99.90
6863;DHT22;3470;48.738;9.616;2024-03-29T19:48:56;11.30;99.90
6863;DHT22;3470;48.738;9.616;2024-03-29T19:51:22;11.30;99.90
6863;DHT22;3470;48.738;9.616;2024-03-29T19:53:48;11.20;99.90
6863;DHT22;3470;48.738;9.616;2024-03-29T19:56:15;11.20;99.90
6863;DHT22;3470;48.738;9.616;2024-03-29T19:58:41;11.10;99.90
6863;DHT22;3470;48.738;9.616;2024-03-29T20:01:07;11.10;99.90
6863;DHT22;3470;48.738;9.616;2024-03-29T20:03:33;11.00;99.90
6863;DHT22;3470;48.738;9.616;2024-03-29T20:05:59;11.00;99.90
6863;DHT22;3470;48.738;9.616;2024-03-29T20:08:25;10.90;99.90
6863;DHT22;3470;48.738;9.616;2024-03-29T20:10:51;10.90;99.90
6863;DHT22;3470;48.738;9.616;2024-03-29T20:13:16;11.00;99.90
6863;DHT22;3470;48.738;9.616;2024-03-29T20:15:45;11.00;99.90
6863;DHT22;3470;48.738;9.616;2024-03-29T20:18:12;11.10;99.90
6863;DHT22;3470;48.738;9.616;2024-03-29T20:20:49;11.20;99.90
6863;DHT22;3470;48.738;9.616;2024-03-29T20:23:15;11.20;99.90
6863;DHT22;3470;48.738;9.616;2024-03-29T20:25:41;11.10;99.90
6863;DHT22;3470;48.738;9.616;2024-03-29T20:28:13;11.10;99.90
6863;DHT22;3470;48.738;9.616;2024-03-29T20:30:39;11.10;99.90
6863;DHT22;3470;48.738;9.616;2024-03-29T20:33:06;11.30;99.90
6863;DHT22;3470;48.738;9.616;2024-03-29T20:35:38;11.30;99.90
6863;DHT22;3470;48.738;9.616;2024-03-29T20:38:05;11.40;99.90
6863;DHT22;3470;48.738;9.616;2024-03-29T20:40:30;11.40;99.90
6863;DHT22;3470;48.738;9.616;2024-03-29T20:42:56;11.50;99.90
6863;DHT22;3470;48.738;9.616;2024-03-29T20:45:21;11.50;99.90
6863;DHT22;3470;48.738;9.616;2024-03-29T20:47:47;11.40;99.90
6863;DHT22;3470;48.738;9.616;2024-03-29T20:50:13;11.50;99.90
6863;DHT22;3470;48.738;9.616;2024-03-29T20:52:38;11.50;99.90
6863;DHT22;3470;48.738;9.616;2024-03-29T20:55:04;11.50;99.90
6863;DHT22;3470;48.738;9.616;2024-03-29T20:57:32;11.60;99.90
6863;DHT22;3470;48.738;9.616;2024-03-29T20:59:58;11.50;99.90
6863;DHT22;3470;48.738;9.616;2024-03-29T21:02:24;11.60;99.90
6863;DHT22;3470;48.738;9.616;2024-03-29T21:05:08;11.60;99.90
6863;DHT22;3470;48.738;9.616;2024-03-29T21:07:53;11.60;99.20
6863;DHT22;3470;48.738;9.616;2024-03-29T21:10:18;11.70;98.40
6863;DHT22;3470;48.738;9.616;2024-03-29T21:12:44;11.80;98.90
6863;DHT22;3470;48.738;9.616;2024-03-29T21:15:10;11.90;98.10
6863;DHT22;3470;48.738;9.616;2024-03-29T21:17:35;12.00;97.90
6863;DHT22;3470;48.738;9.616;2024-03-29T21:20:05;12.10;97.90
6863;DHT22;3470;48.738;9.616;2024-03-29T21:22:35;12.40;96.50
6863;DHT22;3470;48.738;9.616;2024-03-29T21:25:05;12.50;96.10
6863;DHT22;3470;48.738;9.616;2024-03-29T21:27:32;12.80;94.20
6863;DHT22;3470;48.738;9.616;2024-03-29T21:29:58;13.00;93.90
6863;DHT22;3470;48.738;9.616;2024-03-29T21:32:23;13.40;91.00
6863;DHT22;3470;48.738;9.616;2024-03-29T21:34:49;13.80;90.60
6863;DHT22;3470;48.738;9.616;2024-03-29T21:37:15;14.00;90.00
6863;DHT22;3470;48.738;9.616;2024-03-29T21:39:40;14.20;88.90
6863;DHT22;3470;48.738;9.616;2024-03-29T21:42:06;14.50;87.20
6863;DHT22;3470;48.738;9.616;2024-03-29T21:44:35;14.60;85.50
6863;DHT22;3470;48.738;9.616;2024-03-29T21:47:01;14.70;84.20
6863;DHT22;3470;48.738;9.616;2024-03-29T21:49:26;14.70;82.50
6863;DHT22;3470;48.738;9.616;2024-03-29T21:51:52;14.90;80.00
6863;DHT22;3470;48.738;9.616;2024-03-29T21:54:17;15.20;79.10
6863;DHT22;3470;48.738;9.616;2024-03-29T21:56:43;15.30;78.70
6863;DHT22;3470;48.738;9.616;2024-03-29T21:59:09;15.20;78.30
6863;DHT22;3470;48.738;9.616;2024-03-29T22:01:34;15.30;77.20
6863;DHT22;3470;48.738;9.616;2024-03-29T22:04:00;15.30;77.20
6863;DHT22;3470;48.738;9.616;2024-03-29T22:06:25;15.30;76.20
6863;DHT22;3470;48.738;9.616;2024-03-29T22:08:51;15.30;76.30
6863;DHT22;3470;48.738;9.616;2024-03-29T22:11:17;15.20;76.90
6863;DHT22;3470;48.738;9.616;2024-03-29T22:13:42;15.30;75.60
6863;DHT22;3470;48.738;9.616;2024-03-29T22:16:08;15.50;74.90
6863;DHT22;3470;48.738;9.616;2024-03-29T22:18:36;15.70;74.00
6863;DHT22;3470;48.738;9.616;2024-03-29T22:21:01;15.80;73.50
6863;DHT22;3470;48.738;9.616;2024-03-29T22:23:27;15.60;74.30
6863;DHT22;3470;48.738;9.616;2024-03-29T22:25:52;15.70;73.10
6863;DHT22;3470;48.738;9.616;2024-03-29T22:28:18;15.70;74.20
6863;DHT22;3470;48.738;9.616;2024-03-29T22:30:43;15.50;74.40
6863;DHT22;3470;48.738;9.616;2024-03-29T22:33:09;15.40;74.00
6863;DHT22;3470;48.738;9.616;2024-03-29T22:35:35;15.60;72.80
6863;DHT22;3470;48.738;9.616;2024-03-29T22:38:00;15.70;72.00
6863;DHT22;3470;48.738;9.616;2024-03-29T22:40:26;15.60;72.60
6863;DHT22;3470;48.738;9.616;2024-03-29T22:42:52;15.70;72.70
6863;DHT22;3470;48.738;9.616;2024-03-29T22:45:18;15.70;72.20
6863;DHT22;3470;48.738;9.616;2024-03-29T22:47:43;15.80;72.50
6863;DHT22;3470;48.738;9.616;2024-03-29T22:50:09;16.10;70.60
6863;DHT22;3470;48.738;9.616;2024-03-29T22:52:35;16.10;71.30
6863;DHT22;3470;48.738;9.616;2024-03-29T22:55:00;16.00;71.20
6863;DHT22;3470;48.738;9.616;2024-03-29T22:57:26;15.90;71.70
6863;DHT22;3470;48.738;9.616;2024-03-29T22:59:52;16.10;70.30
6863;DHT22;3470;48.738;9.616;2024-03-29T23:02:17;16.30;69.10
6863;DHT22;3470;48.738;9.616;2024-03-29T23:04:43;16.40;69.10
6863;DHT22;3470;48.738;9.616;2024-03-29T23:07:08;16.50;68.50
6863;DHT22;3470;48.738;9.616;2024-03-29T23:09:37;16.60;68.10
6863;DHT22;3470;48.738;9.616;2024-03-29T23:12:03;16.60;68.00
6863;DHT22;3470;48.738;9.616;2024-03-29T23:14:29;16.50;68.90
6863;DHT22;3470;48.738;9.616;2024-03-29T23:16:54;16.50;68.70
6863;DHT22;3470;48.738;9.616;2024-03-29T23:19:20;16.40;68.50
6863;DHT22;3470;48.738;9.616;2024-03-29T23:21:45;16.30;68.90
6863;DHT22;3470;48.738;9.616;2024-03-29T23:24:11;16.40;68.00
6863;DHT22;3470;48.738;9.616;2024-03-29T23:26:38;16.70;67.00
6863;DHT22;3470;48.738;9.616;2024-03-29T23:29:08;16.70;67.70
6863;DHT22;3470;48.738;9.616;2024-03-29T23:31:34;16.50;68.30
6863;DHT22;3470;48.738;9.616;2024-03-29T23:34:00;16.30;68.90
6863;DHT22;3470;48.738;9.616;2024-03-29T23:36:26;16.10;69.40
6863;DHT22;3470;48.738;9.616;2024-03-29T23:38:51;16.30;66.90
6863;DHT22;3470;48.738;9.616;2024-03-29T23:41:17;16.40;68.20
6863;DHT22;3470;48.738;9.616;2024-03-29T23:43:43;16.50;67.20
6863;DHT22;3470;48.738;9.616;2024-03-29T23:46:09;16.60;67.60
6863;DHT22;3470;48.738;9.616;2024-03-29T23:48:34;16.50;67.80
6863;DHT22;3470;48.738;9.616;2024-03-29T23:51:01;16.20;69.10
6863;DHT22;3470;48.738;9.616;2024-03-29T23:53:29;16.00;69.10
6863;DHT22;3470;48.738;9.616;2024-03-29T23:55:57;15.80;69.40
6863;DHT22;3470;48.738;9.616;2024-03-29T23:58:24;15.80;68.60
